Time;durP1;ratioP1;P1;durP2;ratioP2;P2;SDS_P1;SDS_P2;PMS_P1;PMS_P2;Temp;Humidity;BMP_temperature;BMP_pressure;BME280_temperature;BME280_humidity;BME280_pressure;Samples;Min_cycle;Max_cycle;Signal;HPM_P1;HPM_P2
2021/10/14 00:02:13;;;;;;;13.13;6.90;;;;;;;5.48;93.31;98894.75;4988442;28;20073;-59
2021/10/14 00:04:38;;;;;;;15.93;11.02;;;;;;;5.96;91.67;98892.72;4993582;28;20038;-61
2021/10/14 00:07:03;;;;;;;14.98;8.27;;;;;;;6.48;87.45;98886.19;4989439;28;20065;-58
2021/10/14 00:09:29;;;;;;;13.63;9.00;;;;;;;6.55;88.13;98881.81;4993768;28;20052;-59
2021/10/14 00:11:54;;;;;;;51.50;41.80;;;;;;;6.98;87.01;98880.44;4988836;28;20034;-61
2021/10/14 00:14:19;;;;;;;16.42;9.57;;;;;;;6.43;86.83;98881.94;4991689;28;20044;-59
2021/10/14 00:16:45;;;;;;;20.35;13.07;;;;;;;6.53;89.67;98883.56;4988666;28;20039;-58
2021/10/14 00:19:10;;;;;;;28.92;23.00;;;;;;;6.84;88.04;98868.53;4991444;28;20795;-59
2021/10/14 00:21:36;;;;;;;11.85;7.03;;;;;;;6.17;87.71;98865.75;4989108;28;20104;-59
2021/10/14 00:24:01;;;;;;;15.93;9.55;;;;;;;6.15;89.49;98862.31;4990646;28;20476;-58
2021/10/14 00:26:27;;;;;;;25.73;18.02;;;;;;;6.14;90.68;98865.81;4989671;28;20108;-58
2021/10/14 00:28:52;;;;;;;18.38;12.07;;;;;;;6.59;88.56;98862.75;4988637;28;20022;-60
2021/10/14 00:31:17;;;;;;;40.83;32.45;;;;;;;6.78;89.58;98863.38;4989471;28;20038;-58
2021/10/14 00:33:43;;;;;;;15.55;10.23;;;;;;;6.38;88.57;98858.66;4991009;28;20029;-60
2021/10/14 00:36:08;;;;;;;11.93;7.18;;;;;;;6.18;88.55;98861.44;4991441;28;20160;-58
2021/10/14 00:38:33;;;;;;;19.00;11.95;;;;;;;6.36;88.29;98850.91;4989354;28;20032;-60
2021/10/14 00:40:59;;;;;;;18.02;13.05;;;;;;;6.26;89.21;98859.63;4988443;28;20500;-59
2021/10/14 00:43:24;;;;;;;11.93;7.28;;;;;;;6.24;88.73;98865.72;4990190;28;20495;-58
2021/10/14 00:45:50;;;;;;;28.83;21.80;;;;;;;6.43;90.68;98858.59;4987443;28;20050;-59
2021/10/14 00:48:15;;;;;;;12.48;7.78;;;;;;;5.99;90.97;98860.75;4989670;28;20092;-58
2021/10/14 00:50:40;;;;;;;16.05;6.78;;;;;;;5.68;92.02;98857.50;4989908;28;20034;-60
2021/10/14 00:53:07;;;;;;;13.98;7.60;;;;;;;6.28;90.69;98855.28;4991059;28;20053;-58
2021/10/14 00:55:34;;;;;;;11.90;6.82;;;;;;;6.46;89.91;98856.00;4987880;28;20895;-60
2021/10/14 00:58:00;;;;;;;14.38;9.70;;;;;;;6.39;88.97;98855.19;4988172;28;20022;-60
2021/10/14 01:00:25;;;;;;;12.13;7.55;;;;;;;6.30;90.01;98856.13;4989896;28;20515;-58
2021/10/14 01:02:51;;;;;;;16.35;9.98;;;;;;;6.40;89.39;98850.88;4992273;28;20101;-58
2021/10/14 01:05:17;;;;;;;14.43;9.07;;;;;;;6.37;89.34;98859.53;4988466;28;20045;-58
2021/10/14 01:07:42;;;;;;;28.30;20.00;;;;;;;7.14;86.39;98866.41;4988781;28;20085;-58
2021/10/14 01:10:08;;;;;;;13.27;7.78;;;;;;;6.69;88.06;98859.19;4988568;28;20129;-60
2021/10/14 01:12:35;;;;;;;15.82;12.00;;;;;;;6.68;88.67;98848.84;4987235;28;20100;-59
2021/10/14 01:15:14;;;;;;;15.70;11.20;;;;;;;6.77;88.85;98846.13;4990191;28;20022;-59
2021/10/14 01:17:39;;;;;;;16.67;10.10;;;;;;;6.68;88.10;98847.09;4994957;28;20307;-59
2021/10/14 01:20:05;;;;;;;10.15;5.95;;;;;;;6.52;89.63;98853.31;4989275;28;20777;-59
2021/10/14 01:22:30;;;;;;;12.48;7.80;;;;;;;6.62;89.14;98857.53;4987830;28;20042;-61
2021/10/14 01:24:55;;;;;;;32.30;26.65;;;;;;;6.66;89.60;98848.84;4990530;28;20484;-58
2021/10/14 01:27:27;;;;;;;11.70;7.82;;;;;;;6.72;88.38;98832.34;4990602;28;20169;-58
2021/10/14 01:29:52;;;;;;;19.05;13.27;;;;;;;7.03;87.24;98817.25;4989983;28;20474;-59
2021/10/14 01:32:18;;;;;;;11.90;9.23;;;;;;;6.81;88.66;98821.88;4991473;28;20444;-60
2021/10/14 01:34:43;;;;;;;11.77;7.10;;;;;;;6.65;89.94;98823.78;4988896;28;20717;-59
2021/10/14 01:37:08;;;;;;;23.98;16.20;;;;;;;6.93;89.65;98826.06;4987977;28;20038;-60
2021/10/14 01:39:34;;;;;;;17.38;12.30;;;;;;;6.87;89.58;98826.97;4990010;28;20054;-60
2021/10/14 01:41:59;;;;;;;13.02;8.73;;;;;;;6.84;89.98;98821.84;4987778;28;20621;-58
2021/10/14 01:44:25;;;;;;;12.27;5.97;;;;;;;6.45;90.96;98823.16;4988211;28;20033;-59
2021/10/14 01:46:50;;;;;;;12.88;7.05;;;;;;;6.64;90.46;98822.09;4989453;28;20046;-59
2021/10/14 01:49:16;;;;;;;11.65;6.40;;;;;;;6.52;92.01;98820.47;4989216;28;20076;-60
2021/10/14 01:51:41;;;;;;;10.88;7.28;;;;;;;6.98;89.62;98829.44;4987436;28;20038;-58
2021/10/14 01:54:06;;;;;;;15.50;10.13;;;;;;;7.16;88.80;98822.28;4989236;28;20195;-58
2021/10/14 01:56:32;;;;;;;10.52;7.63;;;;;;;7.20;87.73;98834.31;4987959;28;20054;-60
2021/10/14 01:58:57;;;;;;;14.27;9.40;;;;;;;7.20;88.13;98822.22;4988893;28;20535;-58
2021/10/14 02:01:22;;;;;;;14.07;8.27;;;;;;;7.06;90.12;98819.81;4990204;28;20108;-60
2021/10/14 02:03:48;;;;;;;11.90;9.07;;;;;;;7.06;89.95;98817.22;4988392;28;20420;-58
2021/10/14 02:06:13;;;;;;;15.88;10.55;;;;;;;7.23;89.02;98818.72;4988466;28;20042;-61
2021/10/14 02:08:39;;;;;;;20.63;14.90;;;;;;;7.28;87.86;98819.53;4987978;28;20177;-59
2021/10/14 02:11:04;;;;;;;10.75;7.55;;;;;;;7.32;89.77;98823.78;4988542;28;20125;-59
2021/10/14 02:13:29;;;;;;;25.98;18.45;;;;;;;7.35;89.76;98821.13;4987990;28;20150;-61
2021/10/14 02:15:55;;;;;;;14.00;10.05;;;;;;;7.06;91.75;98822.41;4987433;28;20042;-59
2021/10/14 02:18:20;;;;;;;12.07;6.53;;;;;;;6.81;90.03;98831.41;4989259;28;20109;-60
2021/10/14 02:20:45;;;;;;;12.32;6.40;;;;;;;6.77;90.33;98824.53;4988196;28;20563;-61
2021/10/14 02:23:11;;;;;;;10.55;5.93;;;;;;;7.07;89.27;98824.13;4990719;28;20032;-61
2021/10/14 02:25:36;;;;;;;12.25;7.35;;;;;;;7.00;89.29;98821.63;4987333;28;20034;-60
2021/10/14 02:28:02;;;;;;;14.25;8.80;;;;;;;7.07;89.99;98826.72;4989926;28;20040;-60
2021/10/14 02:30:27;;;;;;;11.27;6.40;;;;;;;6.87;90.20;98823.53;4995823;28;20049;-60
2021/10/14 02:32:52;;;;;;;12.65;9.60;;;;;;;7.15;89.97;98818.84;4988285;28;20033;-61
2021/10/14 02:35:18;;;;;;;14.60;9.35;;;;;;;7.08;88.96;98818.06;4987009;28;20522;-59
2021/10/14 02:37:43;;;;;;;14.98;9.00;;;;;;;7.22;89.11;98827.38;4988237;28;20018;-60
2021/10/14 02:40:10;;;;;;;15.77;9.73;;;;;;;7.32;90.08;98818.59;4987353;28;20046;-60
2021/10/14 02:42:35;;;;;;;18.33;12.85;;;;;;;7.35;89.61;98826.31;4987375;28;20022;-59
2021/10/14 02:45:00;;;;;;;11.00;7.28;;;;;;;7.31;90.43;98827.25;4990910;28;20022;-61
2021/10/14 02:47:26;;;;;;;12.43;6.05;;;;;;;7.03;90.91;98822.44;4989278;28;20030;-60
2021/10/14 02:49:51;;;;;;;13.38;7.10;;;;;;;7.07;90.68;98826.72;4986457;28;20113;-60
2021/10/14 02:52:16;;;;;;;13.98;8.10;;;;;;;7.08;90.24;98820.66;4988698;28;20046;-59
2021/10/14 02:54:42;;;;;;;11.80;6.70;;;;;;;7.25;90.01;98816.97;4987694;28;20026;-62
2021/10/14 02:57:07;;;;;;;16.85;10.75;;;;;;;7.50;89.62;98812.28;4986430;28;20050;-61
2021/10/14 02:59:33;;;;;;;17.98;12.07;;;;;;;7.41;93.43;98808.06;4989013;28;20061;-61
2021/10/14 03:01:58;;;;;;;17.35;7.85;;;;;;;7.85;88.16;98814.28;4983047;28;20112;-61
2021/10/14 03:04:23;;;;;;;28.33;18.80;;;;;;;7.90;88.55;98812.47;4985954;28;20062;-60
2021/10/14 03:06:49;;;;;;;18.55;11.15;;;;;;;7.67;91.33;98809.41;4988644;28;20096;-59
2021/10/14 03:09:15;;;;;;;29.80;20.83;;;;;;;7.98;88.90;98808.88;4989583;28;20057;-59
2021/10/14 03:11:40;;;;;;;30.83;23.05;;;;;;;7.63;90.43;98810.34;4987022;28;20058;-60
2021/10/14 03:14:06;;;;;;;13.50;7.68;;;;;;;7.82;89.95;98806.53;4986961;28;20166;-61
2021/10/14 03:16:31;;;;;;;16.90;9.80;;;;;;;7.47;91.45;98812.31;4989040;28;20042;-61
2021/10/14 03:18:57;;;;;;;19.08;12.18;;;;;;;7.77;89.35;98813.53;4987113;28;20028;-62
2021/10/14 03:21:22;;;;;;;21.23;14.73;;;;;;;7.93;90.61;98816.75;4987434;28;20184;-60
2021/10/14 03:23:50;;;;;;;22.77;16.30;;;;;;;7.96;90.27;98808.03;4991210;28;20033;-57
2021/10/14 03:26:15;;;;;;;13.27;8.25;;;;;;;7.45;90.99;98804.53;4989973;28;20045;-60
2021/10/14 03:28:41;;;;;;;13.75;7.65;;;;;;;7.42;91.61;98804.56;4989971;28;20034;-58
2021/10/14 03:31:06;;;;;;;15.20;7.28;;;;;;;7.63;89.72;98807.75;4993767;28;20045;-58
2021/10/14 03:33:32;;;;;;;14.68;9.45;;;;;;;7.84;90.18;98811.72;4993418;28;20036;-60
2021/10/14 03:35:57;;;;;;;13.57;7.88;;;;;;;7.52;91.48;98806.16;4992535;28;20030;-58
2021/10/14 03:38:23;;;;;;;22.27;12.30;;;;;;;7.59;90.17;98806.94;4990642;28;20026;-57
2021/10/14 03:40:48;;;;;;;16.30;9.77;;;;;;;7.52;91.06;98808.75;4991612;28;20042;-58
2021/10/14 03:43:14;;;;;;;13.52;8.13;;;;;;;7.37;91.47;98824.59;4991969;28;20109;-59
2021/10/14 03:45:39;;;;;;;13.82;7.63;;;;;;;7.55;90.73;98813.03;4990732;28;20061;-59
2021/10/14 03:48:05;;;;;;;13.75;7.65;;;;;;;7.49;91.73;98815.72;4992589;28;20026;-59
2021/10/14 03:50:31;;;;;;;15.60;8.27;;;;;;;7.63;91.04;98818.13;4990363;28;20062;-61
2021/10/14 03:52:56;;;;;;;13.95;7.53;;;;;;;7.51;91.45;98822.59;4991760;28;20076;-60
2021/10/14 03:55:22;;;;;;;14.40;8.93;;;;;;;7.60;92.13;98825.97;4989959;28;20045;-57
2021/10/14 03:57:47;;;;;;;14.27;7.63;;;;;;;7.41;92.72;98817.59;4991872;28;20105;-58
2021/10/14 04:00:13;;;;;;;15.02;7.93;;;;;;;7.67;91.55;98830.19;4991245;28;20093;-58
2021/10/14 04:02:38;;;;;;;21.23;8.00;;;;;;;7.58;92.03;98825.13;4988252;28;20030;-58
2021/10/14 04:05:04;;;;;;;15.38;7.68;;;;;;;7.63;91.95;98826.78;4989571;28;20034;-58
2021/10/14 04:07:30;;;;;;;21.42;13.00;;;;;;;7.89;91.50;98825.47;4997407;28;20038;-57
2021/10/14 04:09:55;;;;;;;26.42;19.73;;;;;;;8.15;92.29;98832.81;4991182;28;20037;-60
2021/10/14 04:12:21;;;;;;;19.50;10.18;;;;;;;7.68;90.67;98826.69;4991137;28;20050;-58
2021/10/14 04:14:46;;;;;;;23.50;13.90;;;;;;;8.10;90.53;98824.25;4993370;28;20038;-59
2021/10/14 04:17:12;;;;;;;20.88;9.88;;;;;;;7.69;91.33;98831.00;4989968;28;20041;-59
2021/10/14 04:19:37;;;;;;;19.35;10.23;;;;;;;7.82;91.85;98832.50;4989583;28;20029;-59
2021/10/14 04:22:03;;;;;;;18.33;9.70;;;;;;;7.81;91.47;98829.94;4991591;28;20045;-60
2021/10/14 04:24:29;;;;;;;17.90;9.82;;;;;;;7.89;93.45;98828.09;4989720;28;20026;-58
2021/10/14 04:26:55;;;;;;;21.25;12.82;;;;;;;8.20;92.77;98831.00;4990489;28;20052;-58
2021/10/14 04:29:21;;;;;;;22.23;11.45;;;;;;;8.07;91.17;98835.56;4992524;28;20435;-58
2021/10/14 04:31:47;;;;;;;19.20;10.15;;;;;;;8.24;91.74;98827.47;4990882;28;20034;-58
2021/10/14 04:34:12;;;;;;;17.45;8.90;;;;;;;7.77;93.77;98836.91;4989948;28;20156;-58
2021/10/14 04:36:38;;;;;;;22.98;10.88;;;;;;;8.04;94.30;98845.16;4992807;28;20092;-57
2021/10/14 04:39:05;;;;;;;18.35;9.18;;;;;;;7.79;92.86;98835.16;4990811;28;20149;-59
2021/10/14 04:41:31;;;;;;;22.75;11.85;;;;;;;7.89;93.28;98835.88;4989028;28;20101;-58
2021/10/14 04:43:56;;;;;;;18.55;10.32;;;;;;;7.72;92.41;98833.56;4990516;28;20078;-58
2021/10/14 04:46:21;;;;;;;27.63;12.57;;;;;;;7.94;93.53;98838.38;4991855;28;20594;-58
2021/10/14 04:48:47;;;;;;;25.50;14.05;;;;;;;7.92;94.18;98830.59;4997726;28;20097;-58
2021/10/14 04:51:12;;;;;;;25.65;10.77;;;;;;;8.04;92.42;98834.75;4990359;28;20037;-58
2021/10/14 04:53:38;;;;;;;25.98;12.02;;;;;;;8.47;90.42;98829.66;4987028;28;20022;-59
2021/10/14 04:56:03;;;;;;;37.25;20.55;;;;;;;8.50;90.84;98828.75;4989647;28;20038;-58
2021/10/14 04:58:30;;;;;;;26.63;13.63;;;;;;;8.25;91.31;98823.97;4997990;28;20683;-59
2021/10/14 05:00:55;;;;;;;20.40;10.50;;;;;;;7.99;92.96;98828.78;4988094;28;20875;-59
2021/10/14 05:03:21;;;;;;;29.02;17.65;;;;;;;8.37;91.19;98827.25;4990098;28;20022;-59
2021/10/14 05:05:46;;;;;;;21.25;11.13;;;;;;;7.89;93.38;98831.53;4994535;28;20132;-59
2021/10/14 05:08:12;;;;;;;31.15;21.25;;;;;;;8.39;93.15;98830.66;4991005;28;20026;-61
2021/10/14 05:10:37;;;;;;;21.88;10.52;;;;;;;8.08;92.62;98826.00;4992620;28;20060;-58
2021/10/14 05:13:02;;;;;;;22.27;11.05;;;;;;;8.17;93.15;98827.59;4992898;28;20758;-62
2021/10/14 05:15:28;;;;;;;24.33;10.50;;;;;;;8.08;92.85;98836.41;4990252;28;20030;-60
2021/10/14 05:17:53;;;;;;;24.35;13.82;;;;;;;8.33;91.66;98826.44;4993670;28;20405;-61
2021/10/14 05:20:18;;;;;;;29.90;15.48;;;;;;;8.43;92.31;98832.34;4991860;28;20435;-58
2021/10/14 05:22:44;;;;;;;24.27;12.15;;;;;;;8.11;94.02;98834.63;4993218;28;20399;-59
2021/10/14 05:25:09;;;;;;;25.10;13.55;;;;;;;8.28;92.52;98829.09;4993860;28;20045;-59
2021/10/14 05:27:35;;;;;;;25.33;15.25;;;;;;;8.28;92.50;98838.66;4992151;28;20030;-60
2021/10/14 05:30:01;;;;;;;25.35;12.32;;;;;;;8.33;91.46;98833.38;4990502;28;20036;-59
2021/10/14 05:32:27;;;;;;;25.83;11.85;;;;;;;8.06;93.01;98839.03;4991574;28;20033;-60
2021/10/14 05:34:52;;;;;;;25.88;13.45;;;;;;;8.12;93.43;98838.06;4994580;28;20040;-58
2021/10/14 05:37:18;;;;;;;31.65;18.40;;;;;;;8.57;92.47;98839.91;4992768;28;20034;-59
2021/10/14 05:39:43;;;;;;;29.08;13.90;;;;;;;8.17;96.65;98841.44;4994852;28;20183;-58
2021/10/14 05:42:09;;;;;;;23.88;11.25;;;;;;;7.98;97.42;98840.91;4989328;28;20084;-62
2021/10/14 05:44:34;;;;;;;38.45;24.58;;;;;;;8.43;99.18;98842.75;4992832;28;20026;-61
2021/10/14 05:46:59;;;;;;;34.33;20.30;;;;;;;8.55;96.31;98837.31;4990424;28;20519;-59
2021/10/14 05:49:25;;;;;;;43.95;31.15;;;;;;;8.61;95.02;98834.59;4996691;28;20030;-59
2021/10/14 05:51:51;;;;;;;33.85;17.98;;;;;;;8.75;96.38;98849.03;4989051;28;20116;-60
2021/10/14 05:54:17;;;;;;;45.03;25.77;;;;;;;8.65;98.75;98840.59;4990411;28;20026;-60
2021/10/14 05:56:42;;;;;;;24.92;12.02;;;;;;;8.07;98.02;98845.94;4989854;28;20937;-59
2021/10/14 05:59:07;;;;;;;65.18;37.95;;;;;;;9.02;98.21;98842.44;4990704;28;20045;-59
2021/10/14 06:01:33;;;;;;;30.80;14.38;;;;;;;8.44;92.52;98841.88;4990132;28;20487;-58
2021/10/14 06:03:58;;;;;;;44.80;26.50;;;;;;;9.00;94.37;98850.25;4990450;28;20380;-61
2021/10/14 06:06:24;;;;;;;24.40;11.75;;;;;;;8.70;91.72;98845.72;4993432;28;20042;-60
2021/10/14 06:08:50;;;;;;;29.95;16.45;;;;;;;8.78;92.27;98849.00;4990051;28;20062;-59
2021/10/14 06:11:15;;;;;;;34.70;18.50;;;;;;;8.57;94.21;98842.50;4990927;28;20124;-60
2021/10/14 06:13:41;;;;;;;23.60;11.25;;;;;;;8.21;94.29;98848.28;4992710;28;20366;-59
2021/10/14 06:16:06;;;;;;;27.88;13.63;;;;;;;8.85;92.32;98848.00;4991128;28;20335;-59
2021/10/14 06:18:33;;;;;;;26.48;14.25;;;;;;;8.96;89.93;98852.97;4991422;28;20030;-59
2021/10/14 06:20:58;;;;;;;34.63;19.27;;;;;;;8.73;93.17;98856.03;4989966;28;20038;-59
2021/10/14 06:23:24;;;;;;;31.80;16.58;;;;;;;9.19;91.04;98852.47;4989194;28;20026;-62
2021/10/14 06:25:50;;;;;;;34.97;23.55;;;;;;;9.40;92.84;98849.41;4991546;28;20049;-60
2021/10/14 06:28:15;;;;;;;24.17;11.45;;;;;;;8.79;92.23;98858.53;4990062;28;20030;-60
2021/10/14 06:30:40;;;;;;;29.48;14.48;;;;;;;8.81;91.71;98852.41;4987790;28;20041;-61
2021/10/14 06:33:06;;;;;;;32.92;18.70;;;;;;;9.25;93.07;98852.34;4992596;28;20026;-60
2021/10/14 06:35:31;;;;;;;27.15;14.35;;;;;;;9.22;91.62;98853.25;4991970;28;20092;-62
2021/10/14 06:37:58;;;;;;;22.83;12.20;;;;;;;8.84;91.56;98864.47;4992348;28;20092;-60
2021/10/14 06:40:24;;;;;;;23.15;12.88;;;;;;;9.05;90.91;98858.84;4988913;28;20026;-59
2021/10/14 06:42:49;;;;;;;29.95;15.25;;;;;;;9.00;95.78;98859.81;4993152;28;20466;-59
2021/10/14 06:45:14;;;;;;;27.45;14.57;;;;;;;9.14;94.00;98856.94;4989660;28;20030;-61
2021/10/14 06:47:40;;;;;;;23.50;12.48;;;;;;;9.05;95.03;98848.44;4990293;28;20034;-60
2021/10/14 06:50:06;;;;;;;27.90;16.95;;;;;;;9.50;95.30;98855.25;4989687;28;20030;-58
2021/10/14 06:52:32;;;;;;;24.27;11.90;;;;;;;9.14;92.79;98847.38;4992395;28;20096;-60
2021/10/14 06:54:58;;;;;;;24.88;13.20;;;;;;;9.65;91.44;98844.50;4990263;28;20479;-58
2021/10/14 06:57:23;;;;;;;21.42;11.73;;;;;;;9.34;93.06;98844.34;4988952;28;20035;-61
2021/10/14 06:59:49;;;;;;;24.58;13.63;;;;;;;9.32;92.02;98848.72;4987130;28;20026;-58
2021/10/14 07:02:15;;;;;;;25.55;12.40;;;;;;;9.47;92.05;98849.28;4988826;28;20175;-58
2021/10/14 07:04:40;;;;;;;26.17;13.90;;;;;;;9.28;93.63;98847.06;4991282;28;20030;-59
2021/10/14 07:07:05;;;;;;;22.88;11.90;;;;;;;9.03;93.45;98845.00;4991603;28;20404;-59
2021/10/14 07:09:31;;;;;;;23.98;12.77;;;;;;;9.53;95.98;98851.72;4987054;28;20081;-60
2021/10/14 07:11:59;;;;;;;25.83;12.60;;;;;;;9.38;93.50;98851.19;4992116;28;20479;-58
2021/10/14 07:14:25;;;;;;;29.95;11.55;;;;;;;9.36;92.75;98844.31;4988620;28;20041;-58
2021/10/14 07:16:50;;;;;;;25.75;12.75;;;;;;;9.79;90.45;98851.09;4989539;28;20038;-58
2021/10/14 07:19:16;;;;;;;21.60;11.60;;;;;;;9.58;93.61;98845.53;4994017;28;20053;-59
2021/10/14 07:21:41;;;;;;;24.77;12.45;;;;;;;9.94;94.67;98855.94;4988630;28;20038;-61
2021/10/14 07:24:07;;;;;;;21.45;13.02;;;;;;;10.08;96.61;98859.97;4991294;28;20157;-59
2021/10/14 07:26:33;;;;;;;23.75;12.50;;;;;;;9.84;94.35;98857.91;4989608;28;20036;-60
2021/10/14 07:29:00;;;;;;;20.85;12.63;;;;;;;10.33;95.75;98852.38;4989072;28;20040;-61
2021/10/14 07:31:25;;;;;;;21.48;11.73;;;;;;;10.50;92.64;98855.41;4990570;28;20046;-58
2021/10/14 07:33:51;;;;;;;19.73;11.75;;;;;;;10.58;92.20;98852.59;4992847;28;20060;-58
2021/10/14 07:36:16;;;;;;;18.00;11.90;;;;;;;10.48;94.63;98852.00;4990873;28;20045;-58
2021/10/14 07:38:41;;;;;;;21.35;10.82;;;;;;;10.22;94.41;98857.88;4991716;28;20131;-59
2021/10/14 07:41:07;;;;;;;21.65;10.57;;;;;;;10.41;88.41;98855.66;4988429;28;20129;-58
2021/10/14 07:43:32;;;;;;;20.77;10.98;;;;;;;10.63;90.76;98860.31;4988730;28;20026;-61
2021/10/14 07:46:00;;;;;;;18.65;10.38;;;;;;;10.15;90.11;98867.59;4990464;28;20350;-59
2021/10/14 07:48:25;;;;;;;20.55;10.55;;;;;;;10.19;94.23;98869.22;4989212;28;20033;-63
2021/10/14 07:50:51;;;;;;;22.02;10.65;;;;;;;9.93;90.86;98863.81;4987875;28;20423;-60
2021/10/14 07:53:18;;;;;;;19.40;10.80;;;;;;;10.30;92.41;98862.88;4991083;28;20405;-62
2021/10/14 07:55:45;;;;;;;12.70;9.45;;;;;;;10.84;95.53;98864.91;4988063;28;20740;-59
2021/10/14 07:58:10;;;;;;;18.90;10.38;;;;;;;10.41;90.73;98861.72;4990442;28;20765;-59
2021/10/14 08:00:39;;;;;;;20.70;10.63;;;;;;;10.14;90.58;98865.00;4989053;28;20109;-61
2021/10/14 08:03:05;;;;;;;17.52;10.07;;;;;;;10.71;96.13;98868.75;4989935;28;20034;-60
2021/10/14 08:05:31;;;;;;;18.92;10.90;;;;;;;10.10;90.89;98861.63;4988723;28;20033;-60
2021/10/14 08:07:57;;;;;;;18.95;10.70;;;;;;;10.87;89.37;98870.03;4994653;28;20026;-60
2021/10/14 08:10:23;;;;;;;23.20;10.95;;;;;;;10.21;92.04;98859.59;4992589;28;20566;-61
2021/10/14 08:12:48;;;;;;;18.27;10.48;;;;;;;10.48;91.85;98867.63;4994581;28;20366;-61
2021/10/14 08:15:14;;;;;;;20.33;11.40;;;;;;;10.64;91.19;98872.44;4994909;28;20026;-61
2021/10/14 08:17:39;;;;;;;22.45;11.73;;;;;;;10.28;93.41;98859.47;4993040;28;20026;-58
2021/10/14 08:20:06;;;;;;;22.48;12.20;;;;;;;11.00;88.82;98868.78;4995449;28;20041;-60
2021/10/14 08:22:31;;;;;;;20.13;10.60;;;;;;;11.07;91.89;98866.03;4991851;28;20116;-61
2021/10/14 08:24:59;;;;;;;19.75;10.80;;;;;;;10.80;88.99;98868.50;4992273;28;20057;-60
2021/10/14 08:27:25;;;;;;;23.25;12.07;;;;;;;10.40;89.91;98872.19;4990723;28;20041;-59
2021/10/14 08:29:51;;;;;;;22.20;11.60;;;;;;;10.86;90.16;98876.16;4993490;28;20046;-61
2021/10/14 08:32:16;;;;;;;13.25;8.75;;;;;;;11.02;90.37;98867.91;4991357;28;20141;-60
2021/10/14 08:34:42;;;;;;;25.98;11.85;;;;;;;10.71;90.59;98869.59;4993039;28;20034;-59
2021/10/14 08:37:07;;;;;;;16.48;9.82;;;;;;;11.34;88.40;98865.19;4992106;28;20446;-61
2021/10/14 08:39:32;;;;;;;25.08;11.45;;;;;;;11.09;90.87;98866.81;4995099;28;20091;-61
2021/10/14 08:41:58;;;;;;;17.48;10.75;;;;;;;11.03;87.82;98864.38;4992448;28;20037;-61
2021/10/14 08:44:26;;;;;;;9.82;6.30;;;;;;;12.10;90.68;98871.53;4993257;28;20041;-61
2021/10/14 08:46:57;;;;;;;15.90;9.75;;;;;;;11.08;90.15;98863.38;4992573;28;20269;-59
2021/10/14 08:49:23;;;;;;;19.02;10.80;;;;;;;11.14;87.83;98868.41;4994344;28;20026;-61
2021/10/14 08:51:52;;;;;;;14.07;8.85;;;;;;;11.85;87.20;98865.34;4992846;28;20056;-60
2021/10/14 08:54:18;;;;;;;10.25;5.90;;;;;;;12.64;87.72;98861.81;4991955;28;20084;-62
2021/10/14 08:56:45;;;;;;;15.30;9.05;;;;;;;11.74;89.55;98861.34;4991711;28;20034;-59
2021/10/14 08:59:18;;;;;;;18.30;10.75;;;;;;;12.13;82.71;98867.94;4993488;28;20030;-62
2021/10/14 09:02:10;;;;;;;16.70;9.98;;;;;;;12.19;88.69;98869.53;4993506;28;20127;-60
2021/10/14 09:04:38;;;;;;;12.25;7.78;;;;;;;11.83;84.79;98862.78;4992681;28;20022;-60
2021/10/14 09:07:22;;;;;;;14.23;7.53;;;;;;;11.35;88.46;98866.03;4990377;28;20042;-60
2021/10/14 09:09:49;;;;;;;17.30;10.55;;;;;;;11.50;90.04;98864.72;4992226;28;20691;-61
2021/10/14 09:12:17;;;;;;;13.55;8.35;;;;;;;11.62;87.30;98864.34;4990634;28;20037;-61
2021/10/14 09:14:55;;;;;;;15.13;8.10;;;;;;;12.14;83.66;98867.91;4992962;28;20030;-60
2021/10/14 09:17:44;;;;;;;17.65;10.93;;;;;;;11.50;91.52;98875.16;4989770;28;20044;-60
2021/10/14 09:20:25;;;;;;;19.85;11.15;;;;;;;11.04;90.12;98871.31;4992776;28;20026;-62
2021/10/14 09:23:01;;;;;;;12.05;7.38;;;;;;;11.57;84.21;98874.94;4991079;28;20045;-59
2021/10/14 09:25:42;;;;;;;9.50;6.15;;;;;;;11.80;87.76;98867.25;4991086;28;20034;-60
2021/10/14 09:28:20;;;;;;;13.40;7.67;;;;;;;11.66;88.25;98865.94;4991510;28;20030;-60
2021/10/14 09:31:07;;;;;;;8.38;4.72;;;;;;;12.21;85.36;98867.72;4991636;28;20349;-61
2021/10/14 09:33:43;;;;;;;10.63;6.82;;;;;;;12.36;93.40;98856.72;4993016;28;20037;-59
2021/10/14 09:36:17;;;;;;;15.05;8.60;;;;;;;11.87;85.30;98858.31;4992222;28;20060;-60
2021/10/14 09:38:45;;;;;;;14.13;7.05;;;;;;;11.22;89.12;98855.13;4992077;28;20034;-62
2021/10/14 09:41:14;;;;;;;21.95;9.98;;;;;;;10.82;89.73;98858.88;4991088;28;20045;-60
2021/10/14 09:43:41;;;;;;;13.48;8.90;;;;;;;11.01;88.91;98854.00;4993627;28;20029;-59
2021/10/14 09:46:07;;;;;;;16.85;10.82;;;;;;;11.28;87.05;98854.91;4991599;28;20042;-60
2021/10/14 09:48:35;;;;;;;13.27;6.35;;;;;;;12.05;92.61;98857.75;4990755;28;20065;-60
2021/10/14 09:51:00;;;;;;;17.77;9.60;;;;;;;11.63;87.52;98852.97;4989781;28;20053;-59
2021/10/14 09:53:27;;;;;;;14.52;9.75;;;;;;;11.53;86.32;98854.19;4991664;28;20030;-59
2021/10/14 09:55:54;;;;;;;9.52;5.93;;;;;;;12.14;87.65;98852.19;4991537;28;20503;-60
2021/10/14 09:58:22;;;;;;;17.45;10.07;;;;;;;11.13;87.05;98850.16;4989423;28;20053;-59
2021/10/14 10:00:47;;;;;;;10.68;6.68;;;;;;;11.60;89.12;98854.81;4992412;28;20048;-59
2021/10/14 10:03:18;;;;;;;14.10;8.63;;;;;;;12.03;86.18;98858.72;4991295;28;20030;-60
2021/10/14 10:05:46;;;;;;;13.00;8.30;;;;;;;11.59;86.31;98848.75;4990245;28;20038;-61
2021/10/14 10:08:20;;;;;;;22.15;9.50;;;;;;;11.32;88.96;98847.84;4991499;28;20132;-60
2021/10/14 10:10:46;;;;;;;9.27;6.32;;;;;;;11.64;86.93;98851.25;4992580;28;20130;-60
2021/10/14 10:13:12;;;;;;;17.92;8.57;;;;;;;12.48;84.93;98851.06;4991097;28;20132;-59
2021/10/14 10:15:47;;;;;;;12.85;8.82;;;;;;;11.74;86.83;98848.28;4991060;28;20037;-60
2021/10/14 10:18:28;;;;;;;13.90;8.68;;;;;;;12.46;88.69;98852.88;4993820;28;20030;-61
2021/10/14 10:20:59;;;;;;;17.13;10.32;;;;;;;11.89;85.63;98856.50;4991327;28;20509;-60
2021/10/14 10:23:43;;;;;;;8.93;5.55;;;;;;;12.84;84.36;98852.41;5004370;28;20037;-60
2021/10/14 10:26:36;;;;;;;14.02;8.10;;;;;;;11.89;85.15;98857.38;4990617;28;20065;-62
2021/10/14 10:29:16;;;;;;;15.82;9.85;;;;;;;12.32;87.10;98845.50;4991948;28;20495;-61
2021/10/14 10:31:55;;;;;;;11.38;7.63;;;;;;;12.10;86.21;98850.59;4990310;28;20050;-59
2021/10/14 10:34:45;;;;;;;10.10;6.82;;;;;;;12.97;81.83;98847.56;4991365;28;20395;-60
2021/10/14 10:37:42;;;;;;;12.10;7.43;;;;;;;12.47;85.37;98854.56;4991530;28;20050;-61
2021/10/14 10:40:21;;;;;;;15.63;8.15;;;;;;;11.97;85.29;98853.69;4990531;28;20075;-61
2021/10/14 10:42:55;;;;;;;11.25;6.20;;;;;;;12.73;83.32;98845.78;4990286;28;20399;-58
2021/10/14 10:45:26;;;;;;;7.13;4.28;;;;;;;14.25;79.38;98846.00;4991570;28;20050;-59
2021/10/14 10:47:54;;;;;;;12.52;7.22;;;;;;;13.12;80.11;98846.97;4992318;28;20030;-61
2021/10/14 10:50:22;;;;;;;10.20;6.95;;;;;;;12.77;83.50;98841.28;4989044;28;20315;-62
2021/10/14 10:53:01;;;;;;;12.52;8.00;;;;;;;12.54;84.51;98840.38;4992385;28;20023;-59
2021/10/14 10:55:26;;;;;;;8.10;5.53;;;;;;;13.71;80.44;98837.75;4991526;28;20034;-61
2021/10/14 10:57:54;;;;;;;14.13;7.90;;;;;;;13.16;78.64;98832.00;4990326;28;20036;-62
2021/10/14 11:00:22;;;;;;;10.80;6.93;;;;;;;12.73;82.16;98834.47;4991280;28;20224;-62
2021/10/14 11:03:25;;;;;;;12.38;7.57;;;;;;;12.63;82.24;98831.34;4990558;28;20037;-60
2021/10/14 11:05:53;;;;;;;15.38;8.55;;;;;;;12.50;82.79;98828.31;4990030;28;20049;-60
2021/10/14 11:08:21;;;;;;;15.10;9.30;;;;;;;12.75;82.34;98824.78;4991685;28;20444;-61
2021/10/14 11:10:49;;;;;;;7.63;5.72;;;;;;;13.86;81.36;98823.16;4993405;28;20387;-62
2021/10/14 11:13:15;;;;;;;11.75;7.78;;;;;;;12.62;79.77;98828.78;4989751;28;20125;-60
2021/10/14 11:15:46;;;;;;;9.15;5.95;;;;;;;12.68;81.08;98820.69;4989877;28;20585;-62
2021/10/14 11:18:11;;;;;;;9.15;5.97;;;;;;;13.27;80.45;98825.47;4991225;28;20037;-59
2021/10/14 11:20:36;;;;;;;13.93;8.77;;;;;;;12.44;80.54;98827.66;4988863;28;20034;-60
2021/10/14 11:23:07;;;;;;;15.18;8.93;;;;;;;12.45;81.20;98822.38;4990951;28;20034;-59
2021/10/14 11:25:34;;;;;;;9.45;5.45;;;;;;;13.21;80.37;98823.06;4990729;28;20038;-59
2021/10/14 11:28:07;;;;;;;10.05;5.05;;;;;;;13.62;79.33;98819.75;4993383;28;20068;-61